Time;durP1;ratioP1;P1;durP2;ratioP2;P2;SDS_P1;SDS_P2;PMS_P1;PMS_P2;Temp;Humidity;BMP_temperature;BMP_pressure;BME280_temperature;BME280_humidity;BME280_pressure;Samples;Min_cycle;Max_cycle;Signal;HPM_P1;HPM_P2
2023/08/07 00:02:07;;;;;;;7.22;3.35;;;18.60;99.90;;;;;;5077745;28;20050;-82
2023/08/07 00:04:33;;;;;;;5.63;3.65;;;18.60;99.90;;;;;;5103467;28;20098;-82
2023/08/07 00:06:59;;;;;;;6.00;2.92;;;18.50;99.90;;;;;;5086378;28;20055;-81
2023/08/07 00:09:25;;;;;;;3.08;2.78;;;18.70;99.90;;;;;;5069159;28;20036;-81
2023/08/07 00:11:50;;;;;;;6.93;2.95;;;18.60;99.90;;;;;;5069225;28;20027;-81
2023/08/07 00:14:17;;;;;;;3.53;2.40;;;18.60;99.90;;;;;;5069024;28;20268;-80
2023/08/07 00:16:44;;;;;;;4.75;2.90;;;18.60;99.90;;;;;;5105698;28;20053;-80
2023/08/07 00:19:10;;;;;;;3.40;2.70;;;18.80;99.90;;;;;;5106560;28;20031;-81
2023/08/07 00:21:37;;;;;;;8.48;3.53;;;18.80;99.90;;;;;;5073358;28;20081;-80
2023/08/07 00:24:03;;;;;;;4.63;3.38;;;18.60;99.90;;;;;;5089638;28;20053;-79
2023/08/07 00:26:31;;;;;;;6.10;3.38;;;18.50;99.90;;;;;;5089916;28;20099;-80
2023/08/07 00:28:57;;;;;;;7.03;3.45;;;18.70;99.90;;;;;;5106660;28;20042;-80
2023/08/07 00:31:23;;;;;;;8.70;4.10;;;18.60;99.90;;;;;;5068222;28;20111;-80
2023/08/07 00:33:51;;;;;;;4.63;3.33;;;18.70;99.90;;;;;;5052804;28;20059;-80
2023/08/07 00:36:17;;;;;;;7.50;3.42;;;18.90;99.90;;;;;;5069392;28;20047;-80
2023/08/07 00:38:43;;;;;;;5.57;3.42;;;18.80;99.90;;;;;;5086244;28;20367;-80
2023/08/07 00:41:09;;;;;;;5.18;3.60;;;18.30;99.90;;;;;;5052534;28;20312;-80
2023/08/07 00:43:35;;;;;;;4.57;3.30;;;18.20;99.90;;;;;;5069723;28;20024;-80
2023/08/07 00:46:02;;;;;;;4.63;3.38;;;18.30;99.90;;;;;;5069085;28;20032;-81
2023/08/07 00:48:29;;;;;;;3.75;2.85;;;18.40;99.90;;;;;;5094087;28;20035;-81
2023/08/07 00:50:56;;;;;;;5.30;3.47;;;18.20;99.90;;;;;;5072490;28;20035;-80
2023/08/07 00:53:22;;;;;;;3.13;2.72;;;18.40;99.90;;;;;;5072438;28;20038;-81
2023/08/07 00:55:48;;;;;;;4.63;2.72;;;18.40;99.90;;;;;;5072747;28;20043;-80
2023/08/07 00:58:14;;;;;;;3.85;2.78;;;18.20;99.90;;;;;;5072209;28;20105;-80
2023/08/07 01:00:41;;;;;;;3.90;2.72;;;18.20;99.90;;;;;;5105865;28;20052;-79
2023/08/07 01:03:07;;;;;;;6.57;3.30;;;18.40;99.90;;;;;;5089215;28;20035;-80
2023/08/07 01:05:34;;;;;;;3.78;2.90;;;18.30;99.90;;;;;;5070017;28;20123;-80
2023/08/07 01:08:00;;;;;;;5.35;3.10;;;18.30;99.90;;;;;;5087037;28;20031;-81
2023/08/07 01:10:38;;;;;;;5.50;2.60;;;18.20;99.90;;;;;;5072300;28;20103;-80
2023/08/07 01:13:29;;;;;;;6.03;2.72;;;18.30;99.90;;;;;;5088668;28;20050;-80
2023/08/07 01:15:59;;;;;;;4.32;2.50;;;18.20;99.90;;;;;;5105564;28;20090;-80
2023/08/07 01:18:27;;;;;;;5.82;3.05;;;18.70;99.90;;;;;;5105711;28;20211;-80
2023/08/07 01:20:52;;;;;;;4.45;2.45;;;18.30;99.90;;;;;;5105681;28;20035;-79
2023/08/07 01:23:18;;;;;;;4.57;3.00;;;18.10;99.90;;;;;;5049275;28;20091;-80
2023/08/07 01:25:46;;;;;;;4.70;2.67;;;17.90;99.90;;;;;;5067737;28;20024;-81
2023/08/07 01:28:15;;;;;;;6.03;2.80;;;18.00;99.90;;;;;;5085131;28;20049;-80
2023/08/07 01:30:45;;;;;;;4.32;2.90;;;17.90;99.90;;;;;;5068694;28;20067;-79
2023/08/07 01:33:26;;;;;;;4.50;2.75;;;17.80;99.90;;;;;;5085153;28;20032;-80
2023/08/07 01:35:55;;;;;;;6.95;3.10;;;18.10;99.90;;;;;;5085363;28;20077;-79
2023/08/07 01:38:25;;;;;;;3.72;2.30;;;18.10;99.90;;;;;;5086747;28;20046;-80
2023/08/07 01:40:51;;;;;;;5.68;2.60;;;17.90;99.90;;;;;;5103181;28;20040;-80
2023/08/07 01:43:18;;;;;;;3.35;2.60;;;17.70;99.90;;;;;;5087982;28;20043;-80
2023/08/07 01:45:45;;;;;;;4.22;2.47;;;18.00;99.90;;;;;;5088715;28;20031;-81
2023/08/07 01:48:11;;;;;;;3.83;2.53;;;17.80;99.90;;;;;;5104763;28;20081;-81
2023/08/07 01:50:38;;;;;;;2.97;2.38;;;17.70;99.90;;;;;;5087926;28;20043;-81
2023/08/07 01:53:05;;;;;;;5.55;2.60;;;17.70;99.90;;;;;;5087806;28;20027;-81
2023/08/07 01:55:31;;;;;;;5.05;2.70;;;17.90;99.90;;;;;;5102205;28;20244;-80
2023/08/07 01:57:57;;;;;;;5.63;2.60;;;17.70;99.90;;;;;;5086096;28;20031;-81
2023/08/07 02:00:23;;;;;;;5.38;2.40;;;17.90;99.90;;;;;;5070119;28;20236;-81
2023/08/07 02:02:48;;;;;;;8.10;2.40;;;17.90;99.90;;;;;;5053447;28;20035;-81
2023/08/07 02:05:15;;;;;;;4.43;2.60;;;17.90;99.90;;;;;;5070189;28;20030;-80
2023/08/07 02:07:41;;;;;;;5.68;2.55;;;18.00;99.90;;;;;;5070602;28;20028;-79
2023/08/07 02:10:07;;;;;;;4.72;3.13;;;17.90;99.90;;;;;;5087522;28;20225;-78
2023/08/07 02:12:33;;;;;;;4.30;2.50;;;17.70;99.90;;;;;;5103889;28;20094;-82
2023/08/07 02:15:00;;;;;;;4.13;2.28;;;17.90;99.90;;;;;;5066927;28;20040;-82
2023/08/07 02:17:32;;;;;;;4.18;2.58;;;17.80;99.90;;;;;;5071498;28;20032;-82
2023/08/07 02:19:58;;;;;;;3.60;2.55;;;17.80;99.90;;;;;;5087989;28;20035;-81
2023/08/07 02:22:25;;;;;;;5.97;2.80;;;17.70;99.90;;;;;;5070988;28;20028;-80
2023/08/07 02:24:51;;;;;;;6.55;3.22;;;17.90;99.90;;;;;;5104596;28;20031;-79
2023/08/07 02:27:16;;;;;;;5.15;2.67;;;17.70;99.90;;;;;;5122310;28;20066;-79
2023/08/07 02:29:43;;;;;;;6.50;3.15;;;17.90;99.90;;;;;;5104673;28;20219;-81
2023/08/07 02:32:09;;;;;;;5.70;3.00;;;17.70;99.90;;;;;;5065355;28;20035;-81
2023/08/07 02:34:36;;;;;;;6.47;2.95;;;17.60;99.90;;;;;;5067447;28;20321;-81
2023/08/07 02:37:02;;;;;;;4.22;3.13;;;17.70;99.90;;;;;;5084163;28;20035;-81
2023/08/07 02:39:27;;;;;;;5.22;2.50;;;17.70;99.90;;;;;;5083756;28;20194;-81
2023/08/07 02:41:53;;;;;;;6.32;3.70;;;17.70;99.90;;;;;;5084025;28;20024;-81
2023/08/07 02:44:19;;;;;;;6.65;3.33;;;17.70;99.90;;;;;;5067029;28;20306;-81
2023/08/07 02:46:46;;;;;;;8.52;3.92;;;17.80;99.90;;;;;;5050910;28;20095;-81
2023/08/07 02:49:12;;;;;;;6.45;3.58;;;17.70;99.90;;;;;;5067039;28;20024;-81
2023/08/07 02:51:37;;;;;;;6.45;3.13;;;17.80;99.90;;;;;;5085943;28;20031;-81
2023/08/07 02:54:03;;;;;;;8.10;3.25;;;17.90;99.90;;;;;;5087068;28;20081;-81
2023/08/07 02:56:29;;;;;;;6.25;2.97;;;17.90;99.90;;;;;;5103924;28;20094;-82
2023/08/07 02:58:58;;;;;;;8.20;3.20;;;17.90;99.90;;;;;;5070783;28;20034;-82
2023/08/07 03:01:23;;;;;;;6.13;3.00;;;17.90;99.90;;;;;;5062846;28;20036;-82
2023/08/07 03:03:49;;;;;;;5.43;3.30;;;17.90;99.90;;;;;;5046594;28;20103;-81
2023/08/07 03:06:15;;;;;;;6.88;3.00;;;18.00;99.90;;;;;;5062451;28;20068;-81
2023/08/07 03:08:42;;;;;;;6.05;2.85;;;17.90;99.90;;;;;;5061468;28;20039;-83
2023/08/07 03:11:08;;;;;;;7.90;3.17;;;17.90;99.90;;;;;;5047487;28;20032;-82
2023/08/07 03:13:34;;;;;;;8.55;3.03;;;18.10;99.90;;;;;;5063311;28;20036;-83
2023/08/07 03:16:01;;;;;;;8.13;3.40;;;18.10;99.90;;;;;;5080535;28;20032;-83
2023/08/07 03:18:28;;;;;;;8.23;3.05;;;18.20;99.90;;;;;;5062762;28;20085;-82
2023/08/07 03:20:55;;;;;;;6.78;3.22;;;18.00;99.90;;;;;;5063014;28;20219;-81
2023/08/07 03:23:22;;;;;;;9.38;3.00;;;18.00;99.90;;;;;;5062536;28;20055;-81
2023/08/07 03:25:49;;;;;;;10.63;3.08;;;18.10;99.90;;;;;;5047445;28;20370;-82
2023/08/07 03:28:15;;;;;;;8.13;3.13;;;17.80;99.90;;;;;;5042737;28;20312;-82
2023/08/07 03:30:41;;;;;;;5.60;2.83;;;17.90;99.90;;;;;;5043655;28;20036;-82
2023/08/07 03:33:06;;;;;;;7.13;3.10;;;17.90;99.90;;;;;;5026537;28;20036;-81
2023/08/07 03:35:32;;;;;;;12.52;3.17;;;17.80;99.90;;;;;;5059394;28;20037;-79
2023/08/07 03:37:58;;;;;;;6.90;2.60;;;17.70;99.90;;;;;;5042936;28;20052;-80
2023/08/07 03:40:24;;;;;;;7.22;2.78;;;17.80;99.90;;;;;;5043003;28;20033;-80
2023/08/07 03:42:49;;;;;;;5.78;2.83;;;18.10;99.90;;;;;;5039304;28;20318;-81
2023/08/07 03:45:15;;;;;;;6.35;2.28;;;18.10;99.90;;;;;;5043214;28;20226;-80
2023/08/07 03:47:41;;;;;;;11.50;2.70;;;18.00;99.90;;;;;;5059919;28;20100;-80
2023/08/07 03:50:07;;;;;;;4.75;2.30;;;17.90;99.90;;;;;;5063483;28;20064;-80
2023/08/07 03:52:32;;;;;;;6.57;3.30;;;18.00;99.90;;;;;;5046956;28;20040;-80
2023/08/07 03:54:58;;;;;;;5.97;2.33;;;18.00;99.90;;;;;;5047198;28;20358;-79
2023/08/07 03:57:25;;;;;;;3.65;1.80;;;17.80;99.90;;;;;;5046351;28;20327;-80
2023/08/07 03:59:50;;;;;;;9.75;2.40;;;17.90;99.90;;;;;;5080581;28;20223;-78
2023/08/07 04:02:16;;;;;;;7.28;2.40;;;17.90;99.90;;;;;;5066775;28;20043;-80
2023/08/07 04:04:42;;;;;;;3.80;1.88;;;18.30;99.90;;;;;;5066951;28;20025;-78
2023/08/07 04:07:07;;;;;;;5.10;2.35;;;18.10;99.90;;;;;;5033818;28;20035;-80
2023/08/07 04:09:33;;;;;;;4.75;2.30;;;18.00;99.90;;;;;;5066355;28;20028;-78
2023/08/07 04:11:59;;;;;;;5.90;3.05;;;17.90;99.90;;;;;;5083265;28;20032;-78
2023/08/07 04:14:25;;;;;;;7.00;2.72;;;17.80;99.90;;;;;;5064364;28;20036;-78
2023/08/07 04:16:51;;;;;;;6.72;2.60;;;17.80;99.90;;;;;;5082839;28;20233;-80
2023/08/07 04:19:17;;;;;;;5.10;2.78;;;17.80;99.90;;;;;;5065911;28;20107;-79
2023/08/07 04:21:42;;;;;;;4.53;2.42;;;18.00;99.90;;;;;;5065732;28;20318;-79
2023/08/07 04:24:10;;;;;;;7.57;3.33;;;18.10;99.90;;;;;;5066055;28;20070;-77
2023/08/07 04:26:37;;;;;;;6.53;2.70;;;17.90;99.90;;;;;;5081260;28;20121;-77
2023/08/07 04:29:03;;;;;;;9.27;3.00;;;17.90;99.90;;;;;;5045687;28;20578;-80
2023/08/07 04:31:31;;;;;;;10.93;3.05;;;17.90;99.90;;;;;;5045566;28;20029;-79
2023/08/07 04:33:59;;;;;;;9.20;2.92;;;18.10;99.90;;;;;;5062273;28;20051;-79
2023/08/07 04:36:25;;;;;;;12.25;2.85;;;17.90;99.90;;;;;;5028894;28;20172;-80
2023/08/07 04:38:51;;;;;;;13.20;3.50;;;18.00;99.90;;;;;;5052056;28;20028;-78
2023/08/07 04:41:17;;;;;;;8.88;2.85;;;18.00;99.90;;;;;;5082240;28;20331;-79
2023/08/07 04:43:43;;;;;;;9.27;3.40;;;18.00;99.90;;;;;;5061081;28;20091;-80
2023/08/07 04:46:09;;;;;;;7.85;2.85;;;17.90;99.90;;;;;;5065665;28;20107;-78
2023/08/07 04:48:35;;;;;;;13.23;4.22;;;17.80;99.90;;;;;;5082124;28;20100;-78
2023/08/07 04:51:02;;;;;;;9.15;3.20;;;17.90;99.90;;;;;;5065702;28;20064;-78
2023/08/07 04:53:29;;;;;;;13.60;3.60;;;17.80;99.90;;;;;;5082109;28;20108;-80
2023/08/07 04:55:55;;;;;;;13.98;4.43;;;18.20;99.90;;;;;;5065722;28;20033;-77
2023/08/07 04:58:21;;;;;;;8.95;3.58;;;18.60;99.90;;;;;;5048916;28;20188;-76
2023/08/07 05:00:47;;;;;;;8.40;3.55;;;17.60;99.90;;;;;;5042392;28;20198;-79
2023/08/07 05:03:12;;;;;;;9.52;3.28;;;18.40;99.90;;;;;;5045159;28;20032;-78
2023/08/07 05:05:38;;;;;;;10.40;4.30;;;17.80;99.90;;;;;;5028358;28;20095;-75
2023/08/07 05:08:04;;;;;;;8.52;3.13;;;18.50;99.90;;;;;;5061758;28;20021;-76
2023/08/07 05:10:30;;;;;;;9.25;3.33;;;18.00;99.90;;;;;;5044834;28;20029;-77
2023/08/07 05:12:56;;;;;;;10.93;3.58;;;18.60;99.90;;;;;;5045390;28;20055;-75
2023/08/07 05:15:23;;;;;;;11.90;3.63;;;17.80;99.90;;;;;;5028936;28;20204;-78
2023/08/07 05:17:49;;;;;;;20.95;4.10;;;18.60;99.90;;;;;;5046008;28;20044;-76
2023/08/07 05:20:15;;;;;;;5.03;2.80;;;18.50;99.90;;;;;;5079648;28;20047;-77
2023/08/07 05:22:41;;;;;;;12.05;3.45;;;18.40;99.90;;;;;;5081260;28;20036;-78
2023/08/07 05:25:09;;;;;;;10.43;3.97;;;18.60;99.90;;;;;;5064795;28;20036;-78
2023/08/07 05:27:35;;;;;;;8.48;3.67;;;18.20;99.90;;;;;;5064276;28;20211;-78
2023/08/07 05:30:00;;;;;;;9.75;3.28;;;18.50;99.90;;;;;;5064735;28;20039;-73
2023/08/07 05:32:26;;;;;;;12.65;4.55;;;18.30;99.90;;;;;;5080904;28;20032;-77
2023/08/07 05:34:52;;;;;;;12.88;4.20;;;18.60;99.90;;;;;;5064444;28;20299;-76
2023/08/07 05:37:18;;;;;;;16.25;4.60;;;18.20;99.90;;;;;;5065159;28;20147;-75
2023/08/07 05:39:43;;;;;;;13.23;3.28;;;18.10;99.90;;;;;;5043237;28;20374;-76
2023/08/07 05:42:10;;;;;;;11.57;3.88;;;18.30;99.90;;;;;;5043355;28;20115;-77
2023/08/07 05:44:36;;;;;;;10.70;3.45;;;18.30;99.90;;;;;;5042906;28;20064;-79
2023/08/07 05:47:01;;;;;;;11.85;4.05;;;18.10;99.90;;;;;;5042986;28;20029;-78
2023/08/07 05:49:27;;;;;;;11.32;3.65;;;18.30;99.90;;;;;;5059581;28;20040;-76
2023/08/07 05:51:53;;;;;;;11.00;3.40;;;18.30;99.90;;;;;;5043115;28;20025;-78
2023/08/07 05:54:19;;;;;;;16.23;4.07;;;18.60;99.90;;;;;;5041542;28;20037;-78
2023/08/07 05:56:45;;;;;;;12.48;3.67;;;18.40;99.90;;;;;;5059315;28;20374;-79
2023/08/07 05:59:10;;;;;;;9.20;3.13;;;18.80;99.90;;;;;;5063698;28;20068;-78
2023/08/07 06:01:36;;;;;;;10.32;3.70;;;18.50;99.90;;;;;;5060472;28;20055;-78
2023/08/07 06:04:02;;;;;;;14.20;4.28;;;18.50;99.90;;;;;;5086073;28;20109;-77
2023/08/07 06:06:28;;;;;;;11.15;3.80;;;18.50;99.90;;;;;;5085826;28;20050;-77
2023/08/07 06:08:57;;;;;;;14.75;3.95;;;18.50;99.90;;;;;;5103018;28;20578;-79
2023/08/07 06:11:23;;;;;;;8.60;3.65;;;18.60;99.90;;;;;;5085678;28;20042;-77
2023/08/07 06:13:49;;;;;;;10.48;3.65;;;18.40;99.90;;;;;;5102725;28;20334;-77
2023/08/07 06:16:15;;;;;;;10.85;3.30;;;18.30;99.90;;;;;;5103152;28;20058;-79
2023/08/07 06:18:40;;;;;;;8.85;3.63;;;18.50;99.90;;;;;;5099822;28;20027;-80
2023/08/07 06:21:06;;;;;;;10.80;3.30;;;18.80;99.90;;;;;;5102578;28;20058;-78
2023/08/07 06:23:33;;;;;;;8.27;2.78;;;18.70;99.90;;;;;;5102540;28;20054;-77
2023/08/07 06:25:59;;;;;;;7.18;2.70;;;18.60;99.90;;;;;;5085950;28;20031;-79
2023/08/07 06:28:24;;;;;;;11.27;3.08;;;18.90;99.90;;;;;;5102968;28;20384;-75
2023/08/07 06:30:50;;;;;;;11.30;3.10;;;18.90;99.90;;;;;;5052215;28;20210;-77
2023/08/07 06:33:16;;;;;;;6.57;2.80;;;19.00;99.90;;;;;;5066404;28;20024;-78
2023/08/07 06:35:42;;;;;;;8.68;2.80;;;18.90;99.90;;;;;;5061877;28;20357;-77
2023/08/07 06:38:08;;;;;;;8.63;2.28;;;18.90;99.90;;;;;;5065671;28;20345;-77
2023/08/07 06:40:38;;;;;;;8.93;2.90;;;18.90;99.90;;;;;;5065574;28;20043;-77
2023/08/07 06:43:03;;;;;;;9.80;3.08;;;18.80;99.90;;;;;;5082104;28;20036;-79
2023/08/07 06:45:29;;;;;;;14.65;3.47;;;19.10;99.90;;;;;;5065527;28;20027;-78
2023/08/07 06:47:55;;;;;;;8.27;3.00;;;19.60;99.90;;;;;;5048545;28;20020;-75
2023/08/07 06:50:21;;;;;;;10.85;3.03;;;18.80;99.90;;;;;;5071668;28;20336;-74
2023/08/07 06:52:47;;;;;;;7.88;2.58;;;18.60;99.90;;;;;;5067887;28;20036;-76
2023/08/07 06:55:12;;;;;;;10.07;3.10;;;17.90;99.90;;;;;;5102045;28;20110;-75
2023/08/07 06:57:39;;;;;;;7.05;3.20;;;18.20;99.90;;;;;;5101860;28;20035;-75
2023/08/07 07:00:06;;;;;;;9.57;3.30;;;17.90;99.90;;;;;;5085203;28;20044;-77
2023/08/07 07:02:32;;;;;;;8.40;3.40;;;18.00;99.90;;;;;;5102125;28;20332;-77
2023/08/07 07:04:57;;;;;;;10.93;3.33;;;17.90;99.90;;;;;;5085168;28;20042;-77
2023/08/07 07:07:23;;;;;;;11.90;3.45;;;18.00;99.90;;;;;;5102173;28;20088;-75
2023/08/07 07:09:49;;;;;;;8.77;3.30;;;18.30;99.90;;;;;;5063113;28;20040;-75
2023/08/07 07:12:14;;;;;;;10.95;2.95;;;18.50;99.90;;;;;;5081792;28;20036;-79
2023/08/07 07:14:40;;;;;;;8.65;2.95;;;18.20;99.90;;;;;;5064779;28;20106;-76
2023/08/07 07:17:06;;;;;;;11.55;3.75;;;18.40;99.90;;;;;;5065159;28;20043;-77
2023/08/07 07:19:32;;;;;;;11.75;3.60;;;18.20;99.90;;;;;;5081581;28;20103;-76
2023/08/07 07:21:57;;;;;;;10.38;3.47;;;18.40;99.90;;;;;;5081584;28;20222;-78
2023/08/07 07:24:23;;;;;;;11.50;2.95;;;18.40;99.90;;;;;;5084339;28;20055;-77
2023/08/07 07:26:48;;;;;;;11.70;3.28;;;18.40;99.90;;;;;;5074007;28;20205;-78
2023/08/07 07:29:15;;;;;;;9.45;3.13;;;18.50;99.90;;;;;;5106021;28;20036;-76
2023/08/07 07:31:40;;;;;;;12.00;3.53;;;18.60;99.90;;;;;;5072006;28;20217;-76
2023/08/07 07:34:06;;;;;;;8.27;2.88;;;18.50;99.90;;;;;;5105929;28;20035;-79
2023/08/07 07:36:32;;;;;;;9.05;3.10;;;18.80;99.90;;;;;;5089012;28;20168;-75
2023/08/07 07:38:58;;;;;;;9.77;3.00;;;18.90;99.90;;;;;;5088753;28;20031;-77
2023/08/07 07:41:24;;;;;;;8.23;2.83;;;19.00;99.90;;;;;;5072153;28;20103;-79
2023/08/07 07:43:49;;;;;;;13.48;3.10;;;19.20;99.90;;;;;;5070704;28;20034;-78
2023/08/07 07:46:15;;;;;;;7.30;2.78;;;19.30;99.90;;;;;;5067053;28;20040;-77
2023/08/07 07:48:41;;;;;;;6.20;2.85;;;19.30;99.90;;;;;;5084899;28;20310;-74
2023/08/07 07:51:06;;;;;;;10.55;2.60;;;19.30;99.90;;;;;;5068617;28;20215;-76
2023/08/07 07:53:32;;;;;;;9.38;2.92;;;19.30;99.90;;;;;;5068555;28;20047;-77
2023/08/07 07:55:58;;;;;;;6.45;2.42;;;19.20;99.90;;;;;;5084876;28;20079;-78
2023/08/07 07:58:24;;;;;;;14.23;4.28;;;19.40;99.90;;;;;;5085246;28;20044;-77
2023/08/07 08:00:53;;;;;;;7.70;3.25;;;19.60;99.90;;;;;;5067982;28;20040;-77
2023/08/07 08:03:20;;;;;;;10.13;3.30;;;19.60;99.90;;;;;;5097538;28;20058;-77
2023/08/07 08:05:48;;;;;;;6.28;2.70;;;19.50;99.90;;;;;;5088109;28;20099;-76
2023/08/07 08:08:14;;;;;;;6.80;2.90;;;19.30;99.90;;;;;;5105309;28;20027;-77
2023/08/07 08:10:39;;;;;;;8.95;2.85;;;19.20;99.90;;;;;;5104798;28;20045;-78
2023/08/07 08:13:08;;;;;;;6.32;2.50;;;18.90;99.90;;;;;;5071653;28;20043;-76
2023/08/07 08:15:33;;;;;;;8.95;2.47;;;18.80;99.90;;;;;;5088227;28;20032;-79
2023/08/07 08:17:59;;;;;;;6.70;2.63;;;18.70;99.90;;;;;;5087487;28;20049;-77
2023/08/07 08:20:25;;;;;;;7.18;2.88;;;18.60;99.90;;;;;;5065522;28;20039;-77
2023/08/07 08:22:51;;;;;;;10.60;3.00;;;18.70;99.90;;;;;;5067552;28;20051;-76
2023/08/07 08:25:17;;;;;;;7.35;2.88;;;18.80;99.90;;;;;;5068570;28;20124;-76
2023/08/07 08:27:43;;;;;;;9.05;2.90;;;18.70;99.90;;;;;;5067936;28;20027;-78
2023/08/07 08:30:09;;;;;;;11.27;2.83;;;18.70;99.90;;;;;;5034944;28;20032;-77
2023/08/07 08:32:35;;;;;;;8.45;2.65;;;18.80;99.90;;;;;;5068052;28;20218;-76
2023/08/07 08:35:01;;;;;;;9.88;3.55;;;19.30;99.90;;;;;;5068593;28;20028;-77
2023/08/07 08:37:26;;;;;;;10.65;3.42;;;19.50;99.90;;;;;;5066932;28;20031;-77
2023/08/07 08:39:52;;;;;;;8.70;2.58;;;19.90;99.90;;;;;;5103964;28;20027;-77
2023/08/07 08:42:20;;;;;;;10.57;2.95;;;20.10;99.90;;;;;;5071564;28;20028;-75
2023/08/07 08:44:52;;;;;;;9.75;2.83;;;20.10;99.90;;;;;;5071133;28;20264;-77
2023/08/07 08:47:18;;;;;;;12.15;3.38;;;19.80;99.90;;;;;;5104552;28;20032;-76
2023/08/07 08:49:54;;;;;;;10.13;2.72;;;19.80;99.90;;;;;;5087575;28;20062;-77
2023/08/07 08:52:20;;;;;;;5.95;2.70;;;20.10;99.90;;;;;;5104567;28;20075;-76
2023/08/07 08:54:47;;;;;;;10.15;2.83;;;20.10;99.90;;;;;;5100294;28;20326;-77
2023/08/07 08:57:13;;;;;;;11.88;2.65;;;20.10;99.90;;;;;;5104263;28;20289;-76
2023/08/07 08:59:41;;;;;;;11.02;2.50;;;20.30;99.90;;;;;;5080192;28;20044;-76
2023/08/07 09:02:08;;;;;;;10.80;2.67;;;20.30;99.90;;;;;;5080409;28;20114;-76
2023/08/07 09:04:33;;;;;;;7.82;2.25;;;20.30;99.90;;;;;;5080667;28;20059;-76
2023/08/07 09:07:00;;;;;;;4.85;2.40;;;20.60;99.90;;;;;;5063828;28;20032;-75
2023/08/07 09:09:28;;;;;;;8.13;2.83;;;20.50;99.90;;;;;;5080577;28;20041;-74
2023/08/07 09:11:57;;;;;;;7.75;2.35;;;20.70;99.90;;;;;;5075648;28;20032;-74
2023/08/07 09:14:26;;;;;;;10.70;2.70;;;20.90;99.90;;;;;;5080376;28;20067;-75
2023/08/07 09:16:53;;;;;;;8.10;2.40;;;20.70;99.90;;;;;;5080333;28;20040;-75
2023/08/07 09:19:19;;;;;;;7.13;1.90;;;20.70;99.90;;;;;;5063721;28;20036;-75
2023/08/07 09:21:45;;;;;;;5.97;2.10;;;21.00;99.90;;;;;;5063326;28;20029;-73
2023/08/07 09:24:11;;;;;;;9.77;2.50;;;20.90;99.90;;;;;;5080303;28;20039;-76
2023/08/07 09:26:38;;;;;;;15.77;3.70;;;20.70;99.90;;;;;;5080286;28;20176;-76
2023/08/07 09:29:04;;;;;;;6.65;2.28;;;20.40;99.90;;;;;;5077384;28;20032;-75
2023/08/07 09:31:33;;;;;;;12.82;3.28;;;20.00;99.90;;;;;;5061904;28;20111;-76
2023/08/07 09:34:06;;;;;;;13.52;3.35;;;19.90;99.90;;;;;;5063110;28;20051;-74
2023/08/07 09:36:32;;;;;;;5.55;2.35;;;20.60;99.90;;;;;;5079961;28;20058;-79
2023/08/07 09:39:02;;;;;;;7.45;2.20;;;21.00;99.90;;;;;;5063046;28;20036;-74
2023/08/07 09:41:29;;;;;;;5.95;2.15;;;21.10;99.90;;;;;;5079859;28;20113;-74
2023/08/07 09:43:56;;;;;;;10.18;2.38;;;21.20;99.90;;;;;;5063100;28;20044;-78
2023/08/07 09:46:22;;;;;;;6.60;2.20;;;21.60;99.90;;;;;;5060237;28;20361;-76
2023/08/07 09:48:47;;;;;;;8.23;2.45;;;20.90;99.90;;;;;;5079019;28;20036;-77
2023/08/07 09:51:13;;;;;;;8.57;2.15;;;21.10;99.90;;;;;;5079360;28;20392;-77
2023/08/07 09:53:40;;;;;;;8.23;2.72;;;21.40;99.90;;;;;;5079614;28;20068;-75
2023/08/07 09:56:06;;;;;;;10.73;2.90;;;21.70;99.90;;;;;;5079120;28;20385;-75
2023/08/07 09:58:32;;;;;;;4.68;1.88;;;21.90;99.90;;;;;;5062862;28;20119;-74
2023/08/07 10:01:05;;;;;;;6.53;2.20;;;22.00;99.90;;;;;;5078962;28;20075;-74
2023/08/07 10:03:31;;;;;;;5.97;2.00;;;21.60;99.90;;;;;;5073150;28;20071;-74
2023/08/07 10:05:57;;;;;;;6.13;2.38;;;21.10;99.90;;;;;;5060912;28;20028;-76
2023/08/07 10:08:24;;;;;;;6.22;2.35;;;20.70;99.90;;;;;;5079960;28;20100;-75
2023/08/07 10:10:50;;;;;;;5.85;2.78;;;20.50;99.90;;;;;;5079409;28;20041;-74
2023/08/07 10:13:15;;;;;;;6.45;2.35;;;20.30;99.90;;;;;;5062861;28;20113;-76
2023/08/07 10:15:42;;;;;;;6.88;2.30;;;20.30;99.90;;;;;;5078934;28;20032;-79
2023/08/07 10:18:11;;;;;;;8.95;2.28;;;20.30;99.90;;;;;;5044648;28;20036;-76
2023/08/07 10:20:38;;;;;;;8.23;2.80;;;20.40;99.90;;;;;;5047771;28;20036;-79
2023/08/07 10:23:08;;;;;;;8.43;2.58;;;20.70;99.90;;;;;;5068399;28;20032;-76
2023/08/07 10:25:38;;;;;;;6.72;2.47;;;21.20;99.90;;;;;;5069151;28;20021;-76
2023/08/07 10:28:05;;;;;;;10.25;3.45;;;21.70;99.90;;;;;;5072999;28;20104;-79
2023/08/07 10:30:33;;;;;;;5.85;2.00;;;21.30;99.90;;;;;;5036076;28;20330;-74
2023/08/07 10:32:59;;;;;;;9.20;2.38;;;20.70;99.90;;;;;;5068332;28;20040;-77
2023/08/07 10:35:29;;;;;;;8.63;2.75;;;20.60;99.90;;;;;;5055804;28;20094;-76
2023/08/07 10:38:04;;;;;;;10.05;2.47;;;20.90;99.90;;;;;;5047956;28;20210;-76
2023/08/07 10:40:31;;;;;;;4.30;2.42;;;20.80;99.90;;;;;;5052236;28;20095;-74
2023/08/07 10:43:13;;;;;;;8.43;2.38;;;20.70;99.90;;;;;;5076038;28;20118;-76
2023/08/07 10:45:39;;;;;;;9.45;2.85;;;20.60;99.90;;;;;;5076737;28;20097;-75
2023/08/07 10:48:04;;;;;;;6.25;2.17;;;20.70;99.90;;;;;;5053149;28;20246;-78
2023/08/07 10:50:32;;;;;;;6.53;2.45;;;20.70;99.90;;;;;;5070342;28;20059;-75
2023/08/07 10:53:00;;;;;;;9.18;2.63;;;20.50;99.90;;;;;;5052349;28;20036;-76
2023/08/07 10:55:27;;;;;;;8.63;2.10;;;20.30;99.90;;;;;;5057141;28;20510;-75
2023/08/07 10:57:53;;;;;;;6.78;2.90;;;20.70;99.90;;;;;;5076501;28;20105;-75
2023/08/07 11:00:27;;;;;;;7.80;2.30;;;21.50;99.90;;;;;;5053738;28;20131;-75
2023/08/07 11:02:52;;;;;;;5.43;2.20;;;21.60;99.90;;;;;;5077701;28;20442;-74
2023/08/07 11:05:19;;;;;;;5.70;1.70;;;21.30;99.90;;;;;;5089034;28;20207;-77
2023/08/07 11:07:46;;;;;;;5.47;1.90;;;21.50;99.90;;;;;;5073780;28;20059;-73
2023/08/07 11:10:15;;;;;;;5.53;1.75;;;21.60;99.90;;;;;;5067613;28;20070;-73
2023/08/07 11:12:41;;;;;;;6.45;2.00;;;21.70;99.90;;;;;;5089333;28;20044;-73
2023/08/07 11:15:07;;;;;;;4.68;1.80;;;21.90;99.90;;;;;;5089977;28;20035;-74
2023/08/07 11:17:32;;;;;;;5.20;1.85;;;21.60;99.90;;;;;;5089956;28;20358;-72
2023/08/07 11:19:59;;;;;;;3.97;1.80;;;21.30;99.90;;;;;;5081501;28;20024;-74
2023/08/07 11:22:24;;;;;;;6.90;2.00;;;21.00;99.90;;;;;;5065131;28;20032;-74
2023/08/07 11:24:51;;;;;;;6.15;1.92;;;20.90;99.90;;;;;;5087462;28;20024;-79
2023/08/07 11:27:17;;;;;;;5.10;1.88;;;20.60;99.90;;;;;;5068153;28;20315;-73
2023/08/07 11:29:47;;;;;;;6.80;2.42;;;20.10;99.90;;;;;;5094031;28;20032;-76
2023/08/07 11:32:14;;;;;;;6.88;2.10;;;19.60;99.90;;;;;;5088083;28;20201;-76
2023/08/07 11:34:39;;;;;;;7.63;2.45;;;19.50;99.90;;;;;;5069762;28;20024;-75
2023/08/07 11:37:05;;;;;;;5.15;2.40;;;19.50;99.90;;;;;;5084984;28;20051;-76
2023/08/07 11:39:31;;;;;;;7.25;2.85;;;19.60;99.90;;;;;;5055284;28;20021;-75
2023/08/07 11:41:57;;;;;;;5.20;2.13;;;19.70;99.90;;;;;;5077535;28;20074;-74
2023/08/07 11:44:23;;;;;;;6.35;2.00;;;19.90;99.90;;;;;;5088426;28;20032;-74
2023/08/07 11:46:51;;;;;;;6.88;2.20;;;19.90;99.90;;;;;;5092473;28;20036;-74
2023/08/07 11:49:17;;;;;;;11.63;3.00;;;20.00;99.90;;;;;;5067705;28;20177;-77
2023/08/07 11:51:43;;;;;;;7.20;2.30;;;20.20;99.90;;;;;;5089183;28;20348;-78
2023/08/07 11:54:14;;;;;;;3.55;2.00;;;20.30;99.90;;;;;;5074682;28;20063;-76
2023/08/07 11:56:42;;;;;;;3.60;2.05;;;20.60;99.90;;;;;;5093164;28;20027;-75
2023/08/07 11:59:08;;;;;;;3.25;1.52;;;20.50;99.90;;;;;;5092250;28;20036;-75
2023/08/07 12:01:38;;;;;;;5.45;1.73;;;20.50;99.90;;;;;;5096008;28;20264;-75
2023/08/07 12:04:08;;;;;;;3.75;1.65;;;20.30;99.90;;;;;;5088833;28;20024;-76
2023/08/07 12:06:35;;;;;;;3.10;1.48;;;20.90;99.90;;;;;;5089071;28;20036;-75
2023/08/07 12:09:01;;;;;;;6.78;1.83;;;21.00;99.90;;;;;;5077556;28;20028;-78
2023/08/07 12:11:29;;;;;;;3.97;1.38;;;21.30;99.90;;;;;;5061724;28;20095;-77
2023/08/07 12:13:55;;;;;;;5.28;2.10;;;21.20;99.90;;;;;;5099095;28;20039;-77
2023/08/07 12:16:21;;;;;;;5.40;1.85;;;21.00;99.90;;;;;;5068146;28;20024;-76
2023/08/07 12:18:51;;;;;;;4.95;1.88;;;20.30;99.90;;;;;;5094282;28;20089;-80
2023/08/07 12:21:20;;;;;;;5.30;1.90;;;20.10;99.90;;;;;;5083068;28;20032;-81
2023/08/07 12:23:49;;;;;;;3.67;1.77;;;20.00;99.90;;;;;;5093070;28;20020;-80
2023/08/07 12:26:16;;;;;;;5.80;1.55;;;20.00;99.90;;;;;;5091212;28;20020;-82
2023/08/07 12:28:44;;;;;;;2.72;1.40;;;19.90;99.90;;;;;;5082165;28;20035;-80
2023/08/07 12:31:10;;;;;;;4.40;2.10;;;20.20;99.90;;;;;;5075483;28;20032;-80
2023/08/07 12:33:41;;;;;;;3.75;1.60;;;20.20;99.90;;;;;;5058440;28;20074;-82
2023/08/07 12:36:16;;;;;;;2.63;1.65;;;20.30;99.90;;;;;;5086794;28;20060;-83
2023/08/07 12:38:42;;;;;;;4.78;1.88;;;20.50;99.90;;;;;;5074323;28;20043;-82
2023/08/07 12:41:08;;;;;;;5.22;2.03;;;20.80;99.90;;;;;;5057360;28;20020;-81
2023/08/07 12:43:34;;;;;;;4.00;1.98;;;21.30;99.90;;;;;;5044241;28;20025;-81